Time;durP1;ratioP1;P1;durP2;ratioP2;P2;SDS_P1;SDS_P2;PMS_P1;PMS_P2;Temp;Humidity;BMP_temperature;BMP_pressure;BME280_temperature;BME280_humidity;BME280_pressure;Samples;Min_cycle;Max_cycle;Signal;HPM_P1;HPM_P2
2023/08/24 00:00:11;;;;;;;5.57;4.03;;;25.00;51.00;;;;;;5117030;28;20465;-77
2023/08/24 00:02:37;;;;;;;5.28;3.85;;;25.00;51.00;;;;;;5116489;28;20031;-78
2023/08/24 00:05:03;;;;;;;5.07;3.70;;;25.00;51.10;;;;;;5116716;28;20024;-77
2023/08/24 00:07:29;;;;;;;6.25;4.45;;;25.00;51.20;;;;;;5116404;28;20028;-77
2023/08/24 00:09:55;;;;;;;6.15;4.03;;;25.00;51.30;;;;;;5117162;28;20030;-78
2023/08/24 00:12:20;;;;;;;5.57;4.00;;;25.00;51.30;;;;;;5115308;28;20505;-77
2023/08/24 00:14:46;;;;;;;5.63;4.00;;;25.00;51.50;;;;;;5116498;28;20382;-77
2023/08/24 00:17:11;;;;;;;6.05;3.97;;;24.90;51.40;;;;;;5116341;28;20073;-77
2023/08/24 00:19:37;;;;;;;5.50;3.65;;;24.90;51.50;;;;;;5115675;28;20047;-76
2023/08/24 00:22:03;;;;;;;5.78;4.13;;;24.90;52.20;;;;;;5116203;28;20032;-77
2023/08/24 00:24:29;;;;;;;5.60;4.10;;;24.90;51.60;;;;;;5116590;28;20047;-78
2023/08/24 00:26:55;;;;;;;5.15;3.90;;;24.80;51.60;;;;;;5115072;28;20032;-78
2023/08/24 00:29:21;;;;;;;6.05;4.07;;;24.80;51.70;;;;;;5116540;28;20035;-78
2023/08/24 00:31:47;;;;;;;5.70;4.10;;;24.80;51.80;;;;;;5116057;28;20110;-77
2023/08/24 00:34:13;;;;;;;5.93;4.15;;;24.80;51.90;;;;;;5114611;28;20127;-78
2023/08/24 00:36:39;;;;;;;4.90;3.80;;;24.80;51.90;;;;;;5115689;28;20473;-78
2023/08/24 00:39:04;;;;;;;5.70;4.18;;;24.80;52.00;;;;;;5116274;28;20053;-78
2023/08/24 00:41:30;;;;;;;5.18;3.78;;;24.70;52.00;;;;;;5116125;28;20023;-78
2023/08/24 00:43:55;;;;;;;5.65;3.92;;;24.70;52.00;;;;;;5116101;28;20031;-78
2023/08/24 00:46:22;;;;;;;5.40;3.80;;;24.70;52.00;;;;;;5115994;28;20070;-78
2023/08/24 00:48:48;;;;;;;5.97;4.35;;;24.70;52.10;;;;;;5115295;28;20450;-78
2023/08/24 00:51:14;;;;;;;5.68;3.80;;;24.60;52.10;;;;;;5114690;28;20107;-78
2023/08/24 00:53:40;;;;;;;5.40;4.20;;;24.60;52.20;;;;;;5115747;28;20088;-78
2023/08/24 00:56:06;;;;;;;6.07;4.53;;;24.50;52.30;;;;;;5123097;27;20099;-78
2023/08/24 00:58:33;;;;;;;6.50;4.70;;;24.50;52.40;;;;;;5134187;27;20469;-78
2023/08/24 01:00:58;;;;;;;5.80;4.47;;;24.50;52.40;;;;;;5115800;28;20031;-78
2023/08/24 01:03:24;;;;;;;6.43;4.82;;;24.50;52.50;;;;;;5115434;28;20115;-76
2023/08/24 01:05:51;;;;;;;6.70;4.50;;;24.50;52.60;;;;;;5115100;28;20035;-76
2023/08/24 01:08:17;;;;;;;6.43;4.97;;;24.50;52.60;;;;;;5114768;28;20023;-77
2023/08/24 01:10:59;;;;;;;7.40;4.60;;;24.50;52.70;;;;;;5114454;28;20075;-77
2023/08/24 01:13:41;;;;;;;6.00;4.70;;;24.50;52.80;;;;;;5114270;28;20024;-77
2023/08/24 01:16:27;;;;;;;5.35;4.45;;;24.60;52.80;;;;;;5114143;28;20032;-77
2023/08/24 01:18:59;;;;;;;5.82;4.43;;;24.60;52.90;;;;;;5113842;28;20039;-77
2023/08/24 01:21:29;;;;;;;5.47;4.00;;;24.60;52.80;;;;;;5114927;28;20047;-77
2023/08/24 01:24:14;;;;;;;4.82;4.05;;;24.60;52.90;;;;;;5113563;28;20118;-77
2023/08/24 01:26:41;;;;;;;6.57;4.30;;;24.60;53.00;;;;;;5115063;28;20028;-77
2023/08/24 01:29:07;;;;;;;5.85;4.32;;;24.60;53.00;;;;;;5115327;28;20031;-77
2023/08/24 01:31:33;;;;;;;5.93;4.28;;;24.60;53.00;;;;;;5115394;28;20027;-77
2023/08/24 01:34:01;;;;;;;5.38;4.38;;;24.60;53.10;;;;;;5114622;28;20027;-77
2023/08/24 01:36:26;;;;;;;7.47;4.10;;;24.60;53.10;;;;;;5114960;28;20039;-77
2023/08/24 01:39:41;;;;;;;6.55;3.97;;;24.60;53.30;;;;;;5113595;28;20036;-77
2023/08/24 01:42:10;;;;;;;5.88;4.22;;;24.60;53.60;;;;;;5091287;28;20043;-77
2023/08/24 01:44:39;;;;;;;5.82;3.90;;;24.50;53.30;;;;;;5114851;28;20028;-77
2023/08/24 01:47:07;;;;;;;5.63;4.28;;;24.60;53.40;;;;;;5113327;28;20062;-77
2023/08/24 01:49:34;;;;;;;6.53;4.18;;;24.50;53.30;;;;;;5114436;28;20024;-77
2023/08/24 01:52:01;;;;;;;5.80;4.30;;;24.60;53.40;;;;;;5113290;28;20035;-77
2023/08/24 01:54:27;;;;;;;5.30;4.00;;;24.50;53.40;;;;;;5114398;28;20027;-77
2023/08/24 01:56:53;;;;;;;6.53;4.50;;;24.50;53.40;;;;;;5114484;28;20073;-78
2023/08/24 01:59:19;;;;;;;7.60;4.50;;;24.50;53.40;;;;;;5114472;28;20020;-76
2023/08/24 02:01:44;;;;;;;6.05;4.10;;;24.40;53.50;;;;;;5125366;27;20528;-76
2023/08/24 02:04:10;;;;;;;6.00;4.25;;;24.40;53.50;;;;;;5114348;28;20466;-76
2023/08/24 02:06:35;;;;;;;6.65;4.15;;;24.40;53.60;;;;;;5114885;28;20027;-77
2023/08/24 02:09:01;;;;;;;5.13;4.13;;;24.40;53.60;;;;;;5114204;28;20062;-77
2023/08/24 02:11:27;;;;;;;5.50;4.03;;;24.40;53.60;;;;;;5113037;28;20032;-77
2023/08/24 02:13:52;;;;;;;6.20;4.30;;;24.30;53.60;;;;;;5114266;28;20055;-77
2023/08/24 02:16:18;;;;;;;5.65;4.55;;;24.30;53.60;;;;;;5114233;28;20485;-77
2023/08/24 02:18:43;;;;;;;5.93;4.40;;;24.30;53.70;;;;;;5114255;28;20031;-77
2023/08/24 02:21:11;;;;;;;6.20;4.80;;;24.20;53.70;;;;;;5113622;28;20051;-77
2023/08/24 02:23:37;;;;;;;6.13;4.53;;;24.20;53.70;;;;;;5112706;28;20024;-77
2023/08/24 02:26:04;;;;;;;7.20;4.32;;;24.20;53.80;;;;;;5114403;28;20423;-78
2023/08/24 02:28:29;;;;;;;5.95;4.28;;;24.20;53.90;;;;;;5113175;28;20393;-77
2023/08/24 02:31:00;;;;;;;5.82;4.40;;;24.20;53.90;;;;;;5112796;28;20027;-76
2023/08/24 02:33:25;;;;;;;6.38;4.38;;;24.20;54.00;;;;;;5112673;28;20042;-77
2023/08/24 02:35:51;;;;;;;5.43;4.30;;;24.20;54.10;;;;;;5114743;28;20039;-77
2023/08/24 02:38:17;;;;;;;6.47;4.78;;;24.20;54.10;;;;;;5114007;28;20059;-77
2023/08/24 02:40:42;;;;;;;6.05;4.47;;;24.20;54.10;;;;;;5113746;28;20080;-78
2023/08/24 02:43:08;;;;;;;6.70;4.30;;;24.10;54.10;;;;;;5113699;28;20039;-77
2023/08/24 02:45:34;;;;;;;5.72;4.57;;;24.10;54.10;;;;;;5112537;28;20043;-78
2023/08/24 02:47:59;;;;;;;5.93;4.55;;;24.10;54.20;;;;;;5113266;28;20040;-78
2023/08/24 02:50:25;;;;;;;6.25;4.70;;;24.00;54.20;;;;;;5112680;28;20027;-78
2023/08/24 02:52:52;;;;;;;6.80;4.72;;;24.00;54.30;;;;;;5113437;28;20089;-78
2023/08/24 02:55:17;;;;;;;7.72;4.72;;;24.00;54.40;;;;;;5113804;28;20030;-77
2023/08/24 02:57:43;;;;;;;6.65;4.80;;;24.00;54.40;;;;;;5113532;28;20102;-77
2023/08/24 03:00:09;;;;;;;5.65;4.40;;;24.00;54.50;;;;;;5113947;28;20107;-78
2023/08/24 03:02:36;;;;;;;7.95;5.07;;;24.00;54.50;;;;;;5114627;28;20027;-78
2023/08/24 03:05:02;;;;;;;5.50;4.35;;;24.00;54.60;;;;;;5113345;28;20055;-78
2023/08/24 03:07:28;;;;;;;5.93;4.13;;;24.00;54.60;;;;;;5132795;27;20019;-78
2023/08/24 03:09:53;;;;;;;5.28;3.95;;;24.00;54.60;;;;;;5114028;28;20110;-77
2023/08/24 03:12:19;;;;;;;6.05;4.32;;;24.00;54.70;;;;;;5113715;28;20092;-77
2023/08/24 03:14:44;;;;;;;6.53;4.30;;;24.00;54.70;;;;;;5113907;28;20032;-77
2023/08/24 03:17:10;;;;;;;6.80;4.40;;;24.00;54.70;;;;;;5113687;28;20023;-77
2023/08/24 03:19:36;;;;;;;5.90;4.50;;;24.00;54.70;;;;;;5113334;28;20130;-78
2023/08/24 03:22:02;;;;;;;5.68;4.10;;;24.00;54.70;;;;;;5113920;28;20097;-77
2023/08/24 03:24:27;;;;;;;5.60;4.30;;;24.00;54.80;;;;;;5113193;28;20107;-78
2023/08/24 03:26:53;;;;;;;5.68;4.30;;;24.00;54.80;;;;;;5113026;28;20111;-78
2023/08/24 03:29:19;;;;;;;5.75;4.50;;;24.00;54.90;;;;;;5113453;28;20028;-78
2023/08/24 03:31:45;;;;;;;6.47;4.32;;;24.00;55.00;;;;;;5114085;28;20028;-78
2023/08/24 03:34:10;;;;;;;6.95;4.25;;;24.00;55.00;;;;;;5113449;28;20035;-78
2023/08/24 03:36:37;;;;;;;6.85;4.30;;;24.00;55.00;;;;;;5111989;28;20119;-77
2023/08/24 03:39:03;;;;;;;7.47;4.65;;;24.10;55.00;;;;;;5113060;28;20023;-78
2023/08/24 03:41:29;;;;;;;5.63;4.00;;;24.10;55.00;;;;;;5113588;28;20023;-78
2023/08/24 03:43:54;;;;;;;5.38;3.90;;;24.10;55.00;;;;;;5112730;28;20035;-78
2023/08/24 03:46:20;;;;;;;5.53;4.40;;;24.10;55.00;;;;;;5112595;28;20028;-78
2023/08/24 03:48:46;;;;;;;5.68;4.20;;;24.20;55.00;;;;;;5112975;28;20031;-78
2023/08/24 03:51:12;;;;;;;6.75;4.30;;;24.10;55.00;;;;;;5113282;28;20066;-78
2023/08/24 03:53:38;;;;;;;5.50;3.90;;;24.10;55.00;;;;;;5112787;28;20036;-78
2023/08/24 03:56:04;;;;;;;4.75;3.75;;;24.20;55.10;;;;;;5113315;28;20032;-77
2023/08/24 03:58:29;;;;;;;5.35;3.95;;;24.20;55.10;;;;;;5112896;28;20024;-77
2023/08/24 04:00:55;;;;;;;4.57;3.97;;;24.20;55.10;;;;;;5113534;28;20076;-77
2023/08/24 04:03:20;;;;;;;5.55;4.00;;;24.20;55.10;;;;;;5116938;28;20042;-77
2023/08/24 04:05:46;;;;;;;6.22;3.63;;;24.30;55.20;;;;;;5117189;28;20111;-77
2023/08/24 04:08:12;;;;;;;5.07;3.85;;;24.20;55.10;;;;;;5115026;28;20076;-77
2023/08/24 04:10:38;;;;;;;6.07;3.90;;;24.30;55.30;;;;;;5119028;27;20059;-77
2023/08/24 04:13:03;;;;;;;5.63;3.72;;;24.30;55.30;;;;;;5116523;28;20083;-77
2023/08/24 04:15:29;;;;;;;5.65;3.70;;;24.30;55.30;;;;;;5116433;28;20039;-77
2023/08/24 04:17:54;;;;;;;5.28;3.80;;;24.40;55.30;;;;;;5116603;28;20483;-78
2023/08/24 04:20:21;;;;;;;5.80;3.90;;;24.40;55.30;;;;;;5115980;28;20043;-77
2023/08/24 04:22:46;;;;;;;4.53;3.60;;;24.40;55.30;;;;;;5116627;28;20358;-77
2023/08/24 04:25:12;;;;;;;5.88;4.03;;;24.50;55.30;;;;;;5115920;28;20073;-78
2023/08/24 04:27:38;;;;;;;5.35;3.83;;;24.50;55.40;;;;;;5113490;28;20096;-78
2023/08/24 04:30:04;;;;;;;4.75;3.50;;;24.50;55.30;;;;;;5115038;28;20027;-77
2023/08/24 04:32:31;;;;;;;5.97;3.83;;;24.60;55.40;;;;;;5115399;28;20077;-77
2023/08/24 04:34:57;;;;;;;4.50;3.25;;;24.60;55.50;;;;;;5116951;28;20027;-76
2023/08/24 04:37:22;;;;;;;5.32;3.33;;;24.60;55.50;;;;;;5114677;28;20454;-76
2023/08/24 04:39:48;;;;;;;4.57;3.30;;;24.70;55.50;;;;;;5115031;28;20378;-76
2023/08/24 04:42:13;;;;;;;3.90;3.17;;;24.70;55.60;;;;;;5116048;28;20035;-75
2023/08/24 04:44:40;;;;;;;5.40;3.20;;;24.70;55.70;;;;;;5115561;28;20039;-77
2023/08/24 04:47:06;;;;;;;4.88;3.20;;;24.70;55.70;;;;;;5115422;28;20019;-77
2023/08/24 04:49:32;;;;;;;3.70;3.10;;;24.70;55.80;;;;;;5108395;28;20120;-76
2023/08/24 04:51:57;;;;;;;3.92;3.00;;;24.70;55.80;;;;;;5115996;28;20452;-77
2023/08/24 04:54:23;;;;;;;5.55;3.20;;;24.70;55.90;;;;;;5115693;28;20386;-78
2023/08/24 04:56:49;;;;;;;3.47;3.00;;;24.80;56.00;;;;;;5115359;27;20028;-80
2023/08/24 04:59:15;;;;;;;4.03;2.90;;;24.80;56.00;;;;;;5115689;28;20099;-79
2023/08/24 05:01:40;;;;;;;3.40;2.95;;;24.90;56.10;;;;;;5114569;28;20038;-79
2023/08/24 05:04:06;;;;;;;5.05;2.70;;;24.90;56.70;;;;;;5116312;28;20032;-81
2023/08/24 05:06:32;;;;;;;3.40;2.65;;;24.90;56.10;;;;;;5115829;28;20446;-82
2023/08/24 05:08:57;;;;;;;3.60;2.75;;;25.00;56.10;;;;;;5116033;28;20027;-79
2023/08/24 05:11:26;;;;;;;2.90;2.45;;;25.10;56.10;;;;;;5115432;28;20024;-78
2023/08/24 05:13:51;;;;;;;3.03;2.40;;;25.10;56.10;;;;;;5113231;28;20039;-78
2023/08/24 05:16:17;;;;;;;2.92;2.40;;;25.20;56.20;;;;;;5115713;28;20023;-77
2023/08/24 05:18:43;;;;;;;3.53;2.50;;;25.20;56.70;;;;;;5115242;28;20047;-79
2023/08/24 05:21:08;;;;;;;2.67;2.30;;;25.30;56.20;;;;;;5115471;28;20130;-81
2023/08/24 05:23:34;;;;;;;2.70;2.22;;;25.30;56.20;;;;;;5115474;28;20149;-78
2023/08/24 05:26:02;;;;;;;2.45;2.10;;;25.30;56.20;;;;;;5115660;28;20027;-82
2023/08/24 05:28:29;;;;;;;2.75;1.90;;;25.30;56.30;;;;;;5114939;28;20015;-78
2023/08/24 05:30:55;;;;;;;2.30;2.00;;;25.40;56.40;;;;;;5115353;28;20035;-82
2023/08/24 05:33:22;;;;;;;2.03;1.80;;;25.40;56.40;;;;;;5115541;28;20040;-79
2023/08/24 05:35:49;;;;;;;2.95;1.70;;;25.40;56.40;;;;;;5108347;28;20492;-76
2023/08/24 05:38:15;;;;;;;2.65;1.75;;;25.40;56.40;;;;;;5128877;27;20051;-82
2023/08/24 05:40:48;;;;;;;2.08;1.70;;;25.40;56.40;;;;;;5113170;28;20062;-79
2023/08/24 05:43:14;;;;;;;4.28;1.83;;;25.40;56.40;;;;;;5114856;28;20106;-75
2023/08/24 05:45:40;;;;;;;3.08;1.83;;;25.40;56.40;;;;;;5113408;28;20047;-78
2023/08/24 05:48:07;;;;;;;2.08;1.50;;;25.40;56.40;;;;;;5114127;28;20020;-79
2023/08/24 05:50:33;;;;;;;1.60;1.50;;;25.40;56.40;;;;;;5113022;28;20031;-78
2023/08/24 05:52:59;;;;;;;1.50;1.40;;;25.40;56.30;;;;;;5113379;28;20084;-82
2023/08/24 05:55:24;;;;;;;2.17;1.60;;;25.50;56.40;;;;;;5113834;28;20032;-81
2023/08/24 05:57:50;;;;;;;2.65;1.70;;;25.50;56.30;;;;;;5114449;28;20024;-80
2023/08/24 06:00:16;;;;;;;1.95;1.58;;;25.40;56.30;;;;;;5112892;28;20023;-81
2023/08/24 06:02:42;;;;;;;1.80;1.70;;;25.50;56.30;;;;;;5114016;28;20019;-80
2023/08/24 06:05:08;;;;;;;1.58;1.30;;;25.50;56.40;;;;;;5114238;28;20028;-79
2023/08/24 06:07:34;;;;;;;2.15;1.52;;;25.50;56.50;;;;;;5112358;28;20060;-74
2023/08/24 06:10:00;;;;;;;1.40;1.30;;;25.50;56.50;;;;;;5113820;28;20358;-77
2023/08/24 06:12:26;;;;;;;1.80;1.65;;;25.60;56.60;;;;;;5113692;28;20160;-75
2023/08/24 06:14:51;;;;;;;1.98;1.25;;;25.60;56.60;;;;;;5114036;28;20469;-73
2023/08/24 06:17:17;;;;;;;1.67;1.58;;;25.60;56.30;;;;;;5113923;28;20461;-76
2023/08/24 06:19:43;;;;;;;2.60;1.67;;;25.60;56.20;;;;;;5113022;28;20114;-74
2023/08/24 06:22:08;;;;;;;2.15;1.48;;;25.60;56.20;;;;;;5114580;28;20493;-76
2023/08/24 06:24:34;;;;;;;3.05;1.55;;;25.60;56.20;;;;;;5113979;28;20031;-75
2023/08/24 06:27:00;;;;;;;1.50;1.30;;;25.70;56.30;;;;;;5114371;28;20035;-72
2023/08/24 06:29:28;;;;;;;1.50;1.30;;;25.70;56.10;;;;;;5111955;28;20020;-73
2023/08/24 06:31:55;;;;;;;2.35;1.10;;;25.70;55.90;;;;;;5113925;28;20464;-74
2023/08/24 06:34:21;;;;;;;2.22;1.30;;;25.70;55.60;;;;;;5112538;28;20085;-74
2023/08/24 06:36:47;;;;;;;1.15;1.05;;;25.70;55.60;;;;;;5113363;28;20036;-73
2023/08/24 06:39:13;;;;;;;3.53;1.20;;;25.70;55.50;;;;;;5112742;28;20020;-76
2023/08/24 06:41:38;;;;;;;2.05;1.30;;;25.70;55.20;;;;;;5113773;28;20442;-75
2023/08/24 06:44:04;;;;;;;1.98;1.33;;;25.70;55.10;;;;;;5113654;28;20080;-71
2023/08/24 06:46:30;;;;;;;2.95;1.20;;;25.70;54.90;;;;;;5113398;28;20037;-73
2023/08/24 06:48:56;;;;;;;1.25;1.15;;;25.70;54.80;;;;;;5113588;28;20020;-70
2023/08/24 06:51:21;;;;;;;1.80;1.15;;;25.70;54.80;;;;;;5113316;28;20023;-71
2023/08/24 06:53:48;;;;;;;1.65;1.20;;;25.70;54.70;;;;;;5112922;28;20078;-72
2023/08/24 06:56:14;;;;;;;1.13;1.00;;;25.80;54.70;;;;;;5112833;28;20252;-73
2023/08/24 06:58:40;;;;;;;1.83;1.20;;;25.80;54.70;;;;;;5112141;28;20466;-72
2023/08/24 07:01:07;;;;;;;1.80;1.15;;;25.80;54.70;;;;;;5113603;28;20153;-71
2023/08/24 07:03:33;;;;;;;2.50;1.15;;;25.90;54.60;;;;;;5112051;28;20385;-74
2023/08/24 07:05:59;;;;;;;1.27;1.17;;;25.90;54.50;;;;;;5111838;28;20034;-77
2023/08/24 07:08:25;;;;;;;1.05;1.02;;;25.90;54.20;;;;;;5112976;28;20028;-77
2023/08/24 07:10:51;;;;;;;2.40;1.10;;;25.90;54.10;;;;;;5112544;28;20085;-78
2023/08/24 07:13:17;;;;;;;1.33;1.23;;;26.00;54.10;;;;;;5113011;28;20032;-78
2023/08/24 07:15:45;;;;;;;2.75;1.20;;;26.00;53.80;;;;;;5113004;28;20036;-74
2023/08/24 07:18:10;;;;;;;1.83;0.80;;;26.00;53.70;;;;;;5112671;28;20023;-73
2023/08/24 07:20:37;;;;;;;2.80;1.00;;;26.00;53.50;;;;;;5111431;28;20504;-75
2023/08/24 07:23:03;;;;;;;2.40;1.10;;;26.00;54.00;;;;;;5111619;28;20423;-74
2023/08/24 07:25:29;;;;;;;1.55;1.10;;;26.00;53.30;;;;;;5113042;28;20031;-75
2023/08/24 07:27:58;;;;;;;1.67;0.95;;;26.00;53.10;;;;;;5111760;28;20028;-74
2023/08/24 07:30:27;;;;;;;0.98;0.90;;;26.00;52.90;;;;;;5110943;28;20381;-75
2023/08/24 07:32:53;;;;;;;1.30;1.20;;;26.00;52.80;;;;;;5136993;27;20027;-75
2023/08/24 07:35:20;;;;;;;1.95;1.10;;;26.00;52.60;;;;;;5110712;28;20032;-74
2023/08/24 07:37:47;;;;;;;1.23;1.02;;;26.00;52.60;;;;;;5116941;27;20015;-74
2023/08/24 07:40:14;;;;;;;1.45;1.20;;;26.00;52.40;;;;;;5116855;28;20054;-75
2023/08/24 07:42:44;;;;;;;0.90;0.90;;;26.00;52.20;;;;;;5141095;27;20024;-75
2023/08/24 07:45:10;;;;;;;1.48;1.20;;;26.00;52.30;;;;;;5115153;28;20046;-74
2023/08/24 07:47:36;;;;;;;2.95;1.10;;;26.00;52.10;;;;;;5116652;28;20023;-73
2023/08/24 07:50:01;;;;;;;2.72;1.10;;;25.90;51.80;;;;;;5115899;28;20116;-78
2023/08/24 07:52:28;;;;;;;1.45;1.02;;;25.90;51.60;;;;;;5116323;28;20563;-77
2023/08/24 07:54:55;;;;;;;1.13;0.98;;;25.90;51.70;;;;;;5133463;27;20126;-75
2023/08/24 07:57:20;;;;;;;0.93;0.82;;;25.90;51.50;;;;;;5115063;28;20024;-74
2023/08/24 07:59:46;;;;;;;1.77;0.88;;;25.90;51.40;;;;;;5117588;27;20027;-74
2023/08/24 08:02:15;;;;;;;2.88;1.00;;;25.90;51.40;;;;;;5124371;27;20027;-74
2023/08/24 08:04:40;;;;;;;1.35;1.17;;;25.90;51.10;;;;;;5116162;28;20016;-74
2023/08/24 08:07:06;;;;;;;1.40;1.05;;;25.90;51.00;;;;;;5116660;28;20030;-74
2023/08/24 08:09:32;;;;;;;1.10;0.90;;;25.90;50.70;;;;;;5116387;28;20066;-74
2023/08/24 08:11:57;;;;;;;1.90;0.88;;;26.00;50.70;;;;;;5116613;28;20082;-73
2023/08/24 08:14:23;;;;;;;1.75;0.80;;;26.00;50.50;;;;;;5116430;28;20084;-73
2023/08/24 08:16:49;;;;;;;0.90;0.90;;;26.00;50.30;;;;;;5115240;28;20023;-74
2023/08/24 08:19:15;;;;;;;1.48;0.90;;;26.00;50.20;;;;;;5116500;28;20055;-74
2023/08/24 08:21:40;;;;;;;0.95;0.88;;;26.00;50.00;;;;;;5115252;28;20047;-73
2023/08/24 08:24:06;;;;;;;2.95;1.00;;;26.00;50.00;;;;;;5115706;28;20497;-75
2023/08/24 08:26:32;;;;;;;0.95;0.90;;;26.10;50.10;;;;;;5114929;28;20027;-74
2023/08/24 08:28:57;;;;;;;0.90;0.90;;;26.10;50.00;;;;;;5116601;28;20024;-74
2023/08/24 08:31:23;;;;;;;1.10;0.90;;;26.10;49.80;;;;;;5116433;28;20035;-74
2023/08/24 08:33:49;;;;;;;0.90;0.90;;;26.10;49.80;;;;;;5114511;28;20054;-74
2023/08/24 08:36:14;;;;;;;0.77;0.77;;;26.20;49.90;;;;;;5116268;28;20049;-74
2023/08/24 08:38:40;;;;;;;1.85;1.00;;;26.20;49.90;;;;;;5116059;28;20068;-74
2023/08/24 08:41:06;;;;;;;0.95;0.73;;;26.20;49.90;;;;;;5114776;28;20019;-73
2023/08/24 08:43:31;;;;;;;1.20;1.10;;;26.30;50.00;;;;;;5116262;28;20172;-73
2023/08/24 08:45:59;;;;;;;0.98;0.85;;;26.30;49.70;;;;;;5116012;28;20019;-75
2023/08/24 08:48:25;;;;;;;1.42;0.73;;;26.30;49.60;;;;;;5113345;28;20034;-73
2023/08/24 08:50:55;;;;;;;1.95;1.10;;;26.30;49.60;;;;;;5115919;28;20432;-74
2023/08/24 08:53:22;;;;;;;2.72;1.00;;;26.30;49.50;;;;;;5114651;28;20039;-75
2023/08/24 08:55:51;;;;;;;1.10;0.88;;;26.30;49.50;;;;;;5128537;27;20113;-74
2023/08/24 08:58:17;;;;;;;2.67;0.90;;;26.30;49.40;;;;;;5152029;27;20381;-74
2023/08/24 09:00:43;;;;;;;1.27;1.00;;;26.40;49.40;;;;;;5115647;28;20536;-74
2023/08/24 09:03:09;;;;;;;1.70;0.88;;;26.40;49.30;;;;;;5115787;28;20063;-74
2023/08/24 09:05:37;;;;;;;0.80;0.80;;;26.40;49.20;;;;;;5115686;28;20020;-74
2023/08/24 09:08:05;;;;;;;2.03;1.23;;;26.40;49.10;;;;;;5116085;28;20037;-74
2023/08/24 09:10:31;;;;;;;0.98;0.98;;;26.40;48.90;;;;;;5116203;27;20030;-75
2023/08/24 09:12:57;;;;;;;1.30;0.88;;;26.40;49.00;;;;;;5134663;27;20031;-74
2023/08/24 09:15:35;;;;;;;1.20;1.10;;;26.40;49.00;;;;;;5136184;27;20110;-73
2023/08/24 09:18:00;;;;;;;0.93;0.88;;;26.40;48.90;;;;;;5136765;27;20042;-75
2023/08/24 09:20:30;;;;;;;0.90;0.90;;;26.40;49.00;;;;;;5135992;27;20047;-73
2023/08/24 09:22:57;;;;;;;1.15;0.98;;;26.40;49.10;;;;;;5152122;27;20055;-74
2023/08/24 09:25:23;;;;;;;1.80;1.15;;;26.50;49.10;;;;;;5135965;27;20406;-74
2023/08/24 09:28:07;;;;;;;1.48;0.90;;;26.50;48.90;;;;;;5140273;27;20080;-75
2023/08/24 09:30:35;;;;;;;1.42;0.90;;;26.50;48.80;;;;;;5114601;28;20358;-74
2023/08/24 09:33:10;;;;;;;2.50;0.95;;;26.50;48.90;;;;;;5115639;28;20533;-74
2023/08/24 09:35:37;;;;;;;1.15;1.05;;;26.60;48.90;;;;;;5113552;28;20028;-74
2023/08/24 09:38:19;;;;;;;1.20;1.10;;;26.60;48.80;;;;;;5113801;28;20465;-75
2023/08/24 09:40:51;;;;;;;1.20;1.00;;;26.70;48.70;;;;;;5115561;28;20127;-75
2023/08/24 09:43:17;;;;;;;1.10;1.00;;;26.60;48.70;;;;;;5114883;28;20432;-74
2023/08/24 09:45:56;;;;;;;0.88;0.85;;;26.70;48.80;;;;;;5113549;28;20023;-74
2023/08/24 09:48:22;;;;;;;0.75;0.75;;;26.70;48.70;;;;;;5114639;28;20023;-73
2023/08/24 09:50:51;;;;;;;0.95;0.95;;;26.70;48.70;;;;;;5113473;28;20032;-75
2023/08/24 09:53:22;;;;;;;2.63;1.02;;;26.70;48.60;;;;;;5113221;28;20130;-73
2023/08/24 09:56:01;;;;;;;1.08;0.93;;;26.70;48.60;;;;;;5114971;28;20107;-74
2023/08/24 09:58:27;;;;;;;1.10;0.95;;;26.70;48.40;;;;;;5097489;28;20053;-74
2023/08/24 10:00:53;;;;;;;1.20;1.10;;;26.80;48.40;;;;;;5123331;27;20472;-74
2023/08/24 10:03:21;;;;;;;0.95;0.90;;;26.80;48.30;;;;;;5135336;27;20027;-75
2023/08/24 10:05:53;;;;;;;1.80;1.05;;;26.80;48.20;;;;;;5119385;27;20028;-73
2023/08/24 10:08:28;;;;;;;1.25;1.15;;;26.90;48.20;;;;;;5115153;28;20071;-74
2023/08/24 10:10:58;;;;;;;1.25;1.05;;;26.90;48.20;;;;;;5114697;28;20031;-74
2023/08/24 10:14:08;;;;;;;1.48;1.08;;;26.90;48.10;;;;;;5114485;28;20028;-73
2023/08/24 10:16:36;;;;;;;1.27;0.95;;;27.00;48.10;;;;;;5075131;28;20069;-73
2023/08/24 10:19:03;;;;;;;2.53;1.23;;;27.00;47.90;;;;;;5091874;28;20181;-73
2023/08/24 10:21:29;;;;;;;1.80;1.10;;;26.90;47.60;;;;;;5102080;27;20114;-73
2023/08/24 10:23:59;;;;;;;2.33;1.23;;;26.90;47.50;;;;;;5150648;27;20099;-73
2023/08/24 10:26:26;;;;;;;1.27;1.10;;;26.90;47.50;;;;;;5134658;27;20023;-73
2023/08/24 10:28:52;;;;;;;2.63;1.35;;;27.00;47.40;;;;;;5133624;27;20027;-74
2023/08/24 10:31:19;;;;;;;1.45;1.10;;;27.00;47.40;;;;;;5134803;27;20031;-74
2023/08/24 10:33:46;;;;;;;0.98;0.98;;;27.00;47.40;;;;;;5134705;27;20035;-74
2023/08/24 10:36:14;;;;;;;1.35;1.20;;;27.00;47.30;;;;;;5129127;27;20119;-74
2023/08/24 10:38:43;;;;;;;1.00;0.90;;;27.10;47.30;;;;;;5112525;28;20080;-74
2023/08/24 10:41:13;;;;;;;1.40;1.17;;;27.10;47.30;;;;;;5113796;28;20103;-74
2023/08/24 10:43:40;;;;;;;0.98;0.90;;;27.10;47.30;;;;;;5112695;28;20081;-74
2023/08/24 10:46:13;;;;;;;1.50;1.00;;;27.10;47.10;;;;;;5113731;28;20027;-74
2023/08/24 10:48:42;;;;;;;1.92;1.00;;;27.20;46.70;;;;;;5112822;28;20023;-74
2023/08/24 10:51:13;;;;;;;1.15;1.05;;;27.20;46.80;;;;;;5113557;28;20085;-73
2023/08/24 10:54:00;;;;;;;1.05;0.93;;;27.20;46.70;;;;;;5114019;28;20472;-74
2023/08/24 10:56:53;;;;;;;1.05;0.95;;;27.30;46.40;;;;;;5095845;28;20028;-74
2023/08/24 10:59:19;;;;;;;0.82;0.70;;;27.20;46.00;;;;;;5111751;28;20028;-74
2023/08/24 11:01:55;;;;;;;1.90;0.90;;;27.20;46.40;;;;;;5113703;28;20028;-74
2023/08/24 11:04:21;;;;;;;1.10;1.00;;;27.20;46.20;;;;;;5113585;28;20115;-75
2023/08/24 11:07:02;;;;;;;1.15;1.05;;;27.20;46.20;;;;;;5120960;28;20051;-74
2023/08/24 11:09:48;;;;;;;0.90;0.90;;;27.20;46.10;;;;;;5128399;27;20028;-74
2023/08/24 11:12:14;;;;;;;1.02;0.90;;;27.30;45.50;;;;;;5099190;28;20046;-74
2023/08/24 11:14:58;;;;;;;0.93;0.93;;;27.30;46.20;;;;;;5116606;28;20435;-74
2023/08/24 11:17:29;;;;;;;0.90;0.90;;;27.30;46.00;;;;;;5116541;28;20028;-73
2023/08/24 11:19:55;;;;;;;0.95;0.95;;;27.30;46.10;;;;;;5117614;28;20094;-74
2023/08/24 11:22:21;;;;;;;1.10;1.00;;;27.30;46.70;;;;;;5116092;28;20028;-74
2023/08/24 11:24:47;;;;;;;0.63;0.63;;;27.40;46.00;;;;;;5117408;28;20487;-74
2023/08/24 11:27:13;;;;;;;2.40;1.00;;;27.30;45.80;;;;;;5116552;28;20020;-74
2023/08/24 11:29:38;;;;;;;1.83;0.90;;;27.30;45.80;;;;;;5116076;28;20481;-74
2023/08/24 11:32:04;;;;;;;1.52;0.90;;;27.40;45.80;;;;;;5117162;28;20035;-74
2023/08/24 11:34:31;;;;;;;1.10;1.00;;;27.40;45.70;;;;;;5116259;28;20036;-74
2023/08/24 11:36:57;;;;;;;0.95;0.90;;;27.40;45.80;;;;;;5116788;28;20028;-74
2023/08/24 11:39:24;;;;;;;0.95;0.88;;;27.40;45.60;;;;;;5117776;28;20048;-74
2023/08/24 11:42:03;;;;;;;0.70;0.70;;;27.40;45.60;;;;;;5125084;27;20100;-74
2023/08/24 11:44:43;;;;;;;1.05;0.98;;;27.40;45.20;;;;;;5154295;27;20030;-73
2023/08/24 11:47:10;;;;;;;0.80;0.80;;;27.30;45.30;;;;;;5119565;27;20438;-73
2023/08/24 11:49:35;;;;;;;0.70;0.70;;;27.30;45.30;;;;;;5117065;28;20434;-73
2023/08/24 11:52:02;;;;;;;1.00;0.90;;;27.30;45.20;;;;;;5117335;28;20034;-74
2023/08/24 11:54:27;;;;;;;0.80;0.80;;;27.30;44.90;;;;;;5117491;28;20027;-74
2023/08/24 11:56:53;;;;;;;0.68;0.65;;;27.30;44.60;;;;;;5117061;28;20032;-74
2023/08/24 11:59:20;;;;;;;1.25;0.90;;;27.30;44.40;;;;;;5115256;28;20454;-75
2023/08/24 12:01:47;;;;;;;1.20;0.90;;;27.30;44.00;;;;;;5116309;28;20023;-74
2023/08/24 12:04:13;;;;;;;0.70;0.70;;;27.30;44.10;;;;;;5116057;28;20110;-74
2023/08/24 12:06:39;;;;;;;0.93;0.90;;;27.30;44.00;;;;;;5116479;28;20145;-74
2023/08/24 12:09:06;;;;;;;1.83;1.23;;;27.20;43.90;;;;;;5116559;28;20027;-74
2023/08/24 12:11:41;;;;;;;0.77;0.77;;;27.20;44.00;;;;;;5120887;27;20040;-74
2023/08/24 12:14:09;;;;;;;1.13;1.02;;;27.30;44.20;;;;;;5137453;27;20399;-74
2023/08/24 12:16:35;;;;;;;1.10;0.90;;;27.30;44.30;;;;;;5129697;27;20060;-74
2023/08/24 12:19:04;;;;;;;0.70;0.70;;;27.30;44.30;;;;;;5111687;28;20027;-74
2023/08/24 12:21:30;;;;;;;1.33;1.00;;;27.40;44.30;;;;;;5116298;28;20044;-74
2023/08/24 12:23:59;;;;;;;1.33;0.93;;;27.40;44.30;;;;;;5114977;28;20461;-74
2023/08/24 12:26:27;;;;;;;0.82;0.82;;;27.50;44.30;;;;;;5114947;28;20027;-74
2023/08/24 12:28:59;;;;;;;1.05;0.95;;;27.50;44.20;;;;;;5116717;28;20024;-76
2023/08/24 12:31:28;;;;;;;1.23;1.13;;;27.40;44.10;;;;;;5116011;28;20023;-74
2023/08/24 12:34:11;;;;;;;0.90;0.85;;;27.40;44.10;;;;;;5114362;28;20508;-74
2023/08/24 12:36:39;;;;;;;1.63;0.88;;;27.40;44.10;;;;;;5114915;28;20389;-74
2023/08/24 12:39:05;;;;;;;0.95;0.90;;;27.40;44.30;;;;;;5114467;28;20027;-74
2023/08/24 12:41:31;;;;;;;1.85;1.15;;;27.40;44.30;;;;;;5114087;28;20034;-75
2023/08/24 12:43:57;;;;;;;1.10;1.00;;;27.50;44.30;;;;;;5113927;28;20031;-77
2023/08/24 12:46:23;;;;;;;2.22;1.10;;;27.50;44.10;;;;;;5115900;28;20046;-79
2023/08/24 12:48:50;;;;;;;1.20;1.10;;;27.50;43.80;;;;;;5113639;28;20028;-75